Time;durP1;ratioP1;P1;durP2;ratioP2;P2;SDS_P1;SDS_P2;PMS_P1;PMS_P2;Temp;Humidity;BMP_temperature;BMP_pressure;BME280_temperature;BME280_humidity;BME280_pressure;Samples;Min_cycle;Max_cycle;Signal;HPM_P1;HPM_P2
2023/07/25 00:00:49;;;;;;;9.85;3.45;;;;;;;-146.25;100.00;52266.81;2097655;28;20044;-71
2023/07/25 00:01:51;;;;;;;10.63;4.00;;;;;;;-146.25;100.00;52228.28;2096820;28;35907;-71
2023/07/25 00:02:53;;;;;;;9.57;4.32;;;;;;;-146.25;100.00;52230.31;2097060;28;34637;-70
2023/07/25 00:03:55;;;;;;;9.13;3.92;;;;;;;-146.25;100.00;52234.38;2097300;28;20056;-71
2023/07/25 00:04:56;;;;;;;9.23;4.10;;;;;;;-146.25;100.00;52230.31;2097100;28;39482;-71
2023/07/25 00:06:02;;;;;;;11.68;4.20;;;;;;;-146.25;100.00;52248.56;2097157;28;31774;-71
2023/07/25 00:07:04;;;;;;;7.20;3.80;;;;;;;-146.25;100.00;52218.16;2097077;28;33126;-71
2023/07/25 00:08:06;;;;;;;9.27;3.95;;;;;;;-146.25;100.00;52260.72;2096919;28;28654;-71
2023/07/25 00:09:08;;;;;;;13.00;4.57;;;;;;;-146.25;100.00;52220.19;2097265;28;20163;-70
2023/07/25 00:10:09;;;;;;;8.40;4.38;;;;;;;-146.25;100.00;52234.38;2096946;28;36052;-71
2023/07/25 00:11:14;;;;;;;11.43;4.10;;;;;;;-146.25;100.00;52246.53;2095882;28;35425;-68
2023/07/25 00:12:16;;;;;;;12.40;4.45;;;;;;;-146.25;100.00;52226.25;2095705;28;35799;-70
2023/07/25 00:13:18;;;;;;;10.43;4.45;;;;;;;-146.25;100.00;52195.84;2088678;28;34085;-70
2023/07/25 00:14:22;;;;;;;13.23;4.78;;;;;;;-146.25;100.00;52232.34;2088415;28;36995;-71
2023/07/25 00:15:26;;;;;;;12.15;4.70;;;;;;;-146.25;100.00;52228.28;2088503;28;35234;-71
2023/07/25 00:16:28;;;;;;;9.90;5.00;;;;;;;-146.25;100.00;52260.72;2088311;28;38002;-71
2023/07/25 00:17:30;;;;;;;9.95;4.30;;;;;;;-146.25;100.00;52222.22;2088643;28;34799;-71
2023/07/25 00:18:35;;;;;;;10.27;5.20;;;;;;;-146.25;100.00;52218.16;2088133;28;36162;-71
2023/07/25 00:19:36;;;;;;;12.15;5.00;;;;;;;-146.25;100.00;52222.22;2088953;28;36388;-71
2023/07/25 00:20:40;;;;;;;10.00;5.25;;;;;;;-146.25;100.00;52238.44;2096645;28;32244;-71
2023/07/25 00:21:42;;;;;;;13.75;5.05;;;;;;;-146.25;100.00;52250.59;2096024;28;34088;-71
2023/07/25 00:22:44;;;;;;;10.52;5.28;;;;;;;-146.25;100.00;52254.66;2096262;28;33471;-71
2023/07/25 00:23:48;;;;;;;8.00;5.05;;;;;;;-146.25;100.00;52254.66;2097701;28;20041;-71
2023/07/25 00:24:50;;;;;;;11.65;5.60;;;;;;;-146.25;100.00;52224.25;2096480;28;39139;-71
2023/07/25 00:25:52;;;;;;;11.50;5.38;;;;;;;-146.25;100.00;52220.19;2097238;28;33834;-71
2023/07/25 00:26:53;;;;;;;15.70;5.55;;;;;;;-146.25;100.00;52238.44;2097117;28;34819;-71
2023/07/25 00:27:55;;;;;;;10.55;4.82;;;;;;;-146.25;100.00;52224.25;2096800;28;20049;-71
2023/07/25 00:28:57;;;;;;;9.57;4.95;;;;;;;-146.25;100.00;52303.31;2096564;28;24052;-71
2023/07/25 00:30:03;;;;;;;11.05;5.47;;;;;;;-146.25;100.00;52232.34;2096442;28;30287;-71
2023/07/25 00:31:07;;;;;;;10.68;5.47;;;;;;;-146.25;100.00;52266.81;2096785;28;27359;-71
2023/07/25 00:32:09;;;;;;;11.52;5.85;;;;;;;-146.25;100.00;52250.59;2096477;28;20058;-71
2023/07/25 00:33:11;;;;;;;10.68;5.00;;;;;;;-146.25;100.00;52250.59;2088278;28;20886;-71
2023/07/25 00:34:12;;;;;;;16.50;5.60;;;;;;;-146.25;100.00;52222.22;2096134;28;29713;-69
2023/07/25 00:35:14;;;;;;;8.07;5.30;;;;;;;-146.25;100.00;52232.34;2095703;28;30158;-71
2023/07/25 00:36:16;;;;;;;10.80;5.05;;;;;;;-146.25;100.00;52232.34;2096247;28;31068;-70
2023/07/25 00:37:18;;;;;;;12.45;6.10;;;;;;;-146.25;100.00;52236.41;2096823;28;20037;-70
2023/07/25 00:38:19;;;;;;;13.93;5.30;;;;;;;-146.25;100.00;52252.63;2105078;28;20104;-69
2023/07/25 00:39:22;;;;;;;13.48;6.07;;;;;;;-146.25;100.00;52244.50;2097066;28;20983;-71
2023/07/25 00:40:24;;;;;;;10.93;5.50;;;;;;;-146.25;100.00;52236.41;2096638;28;26225;-69
2023/07/25 00:41:25;;;;;;;11.43;5.65;;;;;;;-146.25;100.00;52232.34;2103748;28;20305;-69
2023/07/25 00:42:29;;;;;;;13.30;6.10;;;;;;;-146.25;100.00;52216.13;2096326;28;20143;-69
2023/07/25 00:43:31;;;;;;;14.43;5.38;;;;;;;-146.25;100.00;52224.25;2088227;28;21001;-69
2023/07/25 00:44:38;;;;;;;12.55;5.88;;;;;;;-146.25;100.00;52236.41;2096787;28;24075;-70
2023/07/25 00:45:40;;;;;;;15.07;6.18;;;;;;;-146.25;100.00;52262.75;2096350;28;20041;-70
2023/07/25 00:46:43;;;;;;;12.68;6.40;;;;;;;-146.25;100.00;52248.56;2096656;28;20142;-70
2023/07/25 00:47:45;;;;;;;14.25;6.28;;;;;;;-146.25;100.00;52246.53;2096485;28;20906;-69
2023/07/25 00:48:47;;;;;;;15.35;6.18;;;;;;;-146.25;100.00;52254.66;2095462;28;25499;-70
2023/07/25 00:49:50;;;;;;;18.15;6.95;;;;;;;-146.25;100.00;52220.19;2096967;28;20784;-68
2023/07/25 00:50:52;;;;;;;13.25;5.68;;;;;;;-146.25;100.00;52264.78;2096501;28;20083;-69
2023/07/25 00:51:54;;;;;;;14.95;5.82;;;;;;;-146.25;100.00;52252.63;2096332;28;25424;-70
2023/07/25 00:52:58;;;;;;;14.07;5.93;;;;;;;-146.25;100.00;52262.75;2088557;28;20128;-70
2023/07/25 00:54:01;;;;;;;14.35;5.72;;;;;;;-146.25;100.00;52234.38;2096103;28;31428;-70
2023/07/25 00:55:03;;;;;;;12.68;5.75;;;;;;;-146.25;100.00;52264.78;2096211;28;30481;-70
2023/07/25 00:56:05;;;;;;;12.93;5.95;;;;;;;-146.25;100.00;52216.13;2096083;28;26168;-69
2023/07/25 00:57:07;;;;;;;9.48;6.10;;;;;;;-146.25;100.00;52240.47;2096484;28;24238;-71
2023/07/25 00:58:12;;;;;;;11.13;5.05;;;;;;;-146.25;100.00;52236.41;2096731;28;20138;-72
2023/07/25 00:59:15;;;;;;;12.35;5.72;;;;;;;-146.25;100.00;52222.22;2096520;28;20037;-71
2023/07/25 01:00:17;;;;;;;19.85;6.80;;;;;;;-146.25;100.00;52283.03;2096351;28;26371;-69
2023/07/25 01:01:24;;;;;;;14.95;5.88;;;;;;;-146.25;100.00;52230.31;2096581;28;20114;-69
2023/07/25 01:02:26;;;;;;;13.32;5.43;;;;;;;-146.25;100.00;52222.22;2088104;28;25694;-69
2023/07/25 01:03:30;;;;;;;15.70;5.70;;;;;;;-146.25;100.00;52226.25;2088191;28;20189;-69
2023/07/25 01:04:32;;;;;;;12.02;6.22;;;;;;;-146.25;100.00;52244.50;2088391;28;20049;-71
2023/07/25 01:05:39;;;;;;;11.13;5.78;;;;;;;-146.25;100.00;52222.22;2087651;28;35082;-70
2023/07/25 01:06:42;;;;;;;16.30;5.82;;;;;;;-146.25;100.00;52242.50;2088476;28;26069;-70
2023/07/25 01:07:45;;;;;;;16.20;5.15;;;;;;;-146.25;100.00;52242.50;2096631;28;20048;-69
2023/07/25 01:08:52;;;;;;;11.48;5.75;;;;;;;-146.25;100.00;52262.75;2088177;28;20208;-70
2023/07/25 01:09:54;;;;;;;13.93;6.65;;;;;;;-146.25;100.00;52248.56;2089001;28;20439;-69
2023/07/25 01:10:56;;;;;;;13.85;6.05;;;;;;;-146.25;100.00;52250.59;2096105;28;30902;-69
2023/07/25 01:11:57;;;;;;;9.63;5.55;;;;;;;-146.25;100.00;52254.66;2088683;28;20045;-70
2023/07/25 01:13:00;;;;;;;12.32;5.70;;;;;;;-146.25;100.00;52222.22;2088801;28;20049;-70
2023/07/25 01:14:02;;;;;;;13.48;5.80;;;;;;;-146.25;100.00;52238.44;2087927;28;30591;-69
2023/07/25 01:15:05;;;;;;;13.55;5.60;;;;;;;-146.25;100.00;52248.56;2080205;28;20080;-70
2023/07/25 01:16:10;;;;;;;9.48;5.60;;;;;;;-146.25;100.00;52244.50;2079995;28;20892;-70
2023/07/25 01:17:17;;;;;;;11.65;5.70;;;;;;;-146.25;100.00;52254.66;2071444;28;30097;-70
2023/07/25 01:18:20;;;;;;;12.43;6.18;;;;;;;-146.25;100.00;52244.50;2081995;28;20041;-70
2023/07/25 01:19:28;;;;;;;9.25;5.40;;;;;;;-146.25;100.00;52272.91;2096006;28;27822;-70
2023/07/25 01:20:31;;;;;;;15.55;5.65;;;;;;;-146.25;100.00;52238.44;2095282;28;27394;-70
2023/07/25 01:21:33;;;;;;;11.55;5.72;;;;;;;-146.25;100.00;52262.75;2080893;28;20045;-70
2023/07/25 01:22:37;;;;;;;13.80;5.88;;;;;;;-146.25;100.00;52266.81;2087997;28;28727;-71
2023/07/25 01:23:40;;;;;;;19.73;6.20;;;;;;;-146.25;100.00;52226.25;2087927;28;23712;-70
2023/07/25 01:24:45;;;;;;;13.55;5.57;;;;;;;-146.25;100.00;52266.81;2094361;28;20056;-70
2023/07/25 01:25:48;;;;;;;15.23;6.53;;;;;;;-146.25;100.00;52238.44;2088059;28;20096;-70
2023/07/25 01:26:49;;;;;;;12.90;5.35;;;;;;;-146.25;100.00;52268.84;2087759;28;31064;-70
2023/07/25 01:27:51;;;;;;;17.80;6.38;;;;;;;-146.25;100.00;52258.72;2087542;28;25538;-70
2023/07/25 01:28:53;;;;;;;15.73;5.97;;;;;;;-146.25;100.00;52218.16;2087765;28;20042;-70
2023/07/25 01:29:55;;;;;;;13.70;6.03;;;;;;;-146.25;100.00;52244.50;2097051;28;20163;-70
2023/07/25 01:30:59;;;;;;;17.75;6.13;;;;;;;-146.25;100.00;52230.31;2103983;28;37814;-71
2023/07/25 01:32:01;;;;;;;13.10;6.07;;;;;;;-146.25;100.00;52295.19;2103884;28;25294;-71
2023/07/25 01:33:03;;;;;;;12.30;6.25;;;;;;;-146.25;100.00;52246.53;2096184;28;20914;-70
2023/07/25 01:34:04;;;;;;;12.55;6.35;;;;;;;-146.25;100.00;52242.50;2096847;28;20041;-70
2023/07/25 01:35:07;;;;;;;10.82;6.47;;;;;;;-146.25;100.00;52283.03;2104120;28;34504;-70
2023/07/25 01:36:09;;;;;;;13.57;6.00;;;;;;;-146.25;100.00;52270.88;2103787;28;25353;-70
2023/07/25 01:37:11;;;;;;;13.25;6.88;;;;;;;-146.25;100.00;52246.53;2096585;28;31441;-70
2023/07/25 01:38:13;;;;;;;11.88;6.30;;;;;;;-146.25;100.00;52248.56;2103846;28;30445;-70
2023/07/25 01:39:15;;;;;;;14.23;6.75;;;;;;;-146.25;100.00;52203.97;2104710;28;20025;-70
2023/07/25 01:40:19;;;;;;;11.68;6.68;;;;;;;-146.25;100.00;52212.06;2096628;28;27002;-70
2023/07/25 01:41:21;;;;;;;13.85;6.55;;;;;;;-146.25;100.00;52281.00;2103101;28;21007;-70
2023/07/25 01:42:23;;;;;;;14.48;7.30;;;;;;;-146.25;100.00;52238.44;2103995;28;22416;-69
2023/07/25 01:43:27;;;;;;;11.50;6.47;;;;;;;-146.25;100.00;52222.22;2096790;28;20041;-70
2023/07/25 01:44:32;;;;;;;10.57;6.65;;;;;;;-146.25;100.00;52283.03;2096514;28;34018;-70
2023/07/25 01:45:34;;;;;;;13.70;6.93;;;;;;;-146.25;100.00;52234.38;2096297;28;23167;-70
2023/07/25 01:46:41;;;;;;;12.98;7.22;;;;;;;-146.25;100.00;52254.66;2096139;28;34273;-70
2023/07/25 01:47:43;;;;;;;13.88;7.13;;;;;;;-146.25;100.00;52266.81;2096864;28;20044;-70
2023/07/25 01:48:47;;;;;;;14.43;6.95;;;;;;;-146.25;100.00;52240.47;2097081;28;20041;-70
2023/07/25 01:49:49;;;;;;;14.93;7.30;;;;;;;-146.25;100.00;52246.53;2095572;28;30216;-70
2023/07/25 01:50:50;;;;;;;15.68;8.20;;;;;;;-146.25;100.00;52254.66;2095739;28;33634;-70
2023/07/25 01:51:52;;;;;;;16.27;7.68;;;;;;;-146.25;100.00;52260.72;2103963;28;30725;-70
2023/07/25 01:52:54;;;;;;;15.93;7.60;;;;;;;-146.25;100.00;52244.50;2104157;28;20088;-70
2023/07/25 01:53:58;;;;;;;13.57;8.13;;;;;;;-146.25;100.00;52268.84;2097043;28;20071;-71
2023/07/25 01:55:00;;;;;;;16.65;8.25;;;;;;;-146.25;100.00;52236.41;2096516;28;31687;-70
2023/07/25 01:56:02;;;;;;;16.48;7.95;;;;;;;-146.25;100.00;52289.13;2096960;28;20202;-71
2023/07/25 01:57:05;;;;;;;13.43;7.55;;;;;;;-146.25;100.00;52285.06;2096277;28;20044;-71
2023/07/25 01:58:06;;;;;;;16.60;7.60;;;;;;;-146.25;100.00;52272.91;2087864;28;20030;-70
2023/07/25 01:59:11;;;;;;;12.88;6.75;;;;;;;-146.25;100.00;52240.47;2087906;28;20068;-70
2023/07/25 02:00:14;;;;;;;14.52;7.68;;;;;;;-146.25;100.00;52270.88;2087384;28;21063;-70
2023/07/25 02:01:15;;;;;;;16.20;7.82;;;;;;;-146.25;100.00;52268.84;2095151;28;40963;-70
2023/07/25 02:02:17;;;;;;;14.60;8.18;;;;;;;-146.25;100.00;52230.31;2088165;28;25773;-70
2023/07/25 02:03:19;;;;;;;15.43;8.07;;;;;;;-146.25;100.00;52242.50;2087796;28;20808;-70
2023/07/25 02:04:21;;;;;;;13.90;8.45;;;;;;;-146.25;100.00;52242.50;2086872;28;39369;-70
2023/07/25 02:05:22;;;;;;;14.82;7.78;;;;;;;-146.25;100.00;52291.16;2087840;28;21023;-70
2023/07/25 02:06:24;;;;;;;14.02;8.93;;;;;;;-146.25;100.00;52266.81;2087483;28;20041;-70
2023/07/25 02:07:26;;;;;;;16.10;7.57;;;;;;;-146.25;100.00;52250.59;2078836;28;32791;-69
2023/07/25 02:08:30;;;;;;;15.60;8.10;;;;;;;-146.25;100.00;52268.84;2087482;28;24773;-70
2023/07/25 02:09:32;;;;;;;15.15;8.20;;;;;;;-146.25;100.00;52230.31;2087516;28;31011;-71
2023/07/25 02:10:33;;;;;;;20.50;8.88;;;;;;;-146.25;100.00;52274.94;2095226;28;20045;-70
2023/07/25 02:11:37;;;;;;;14.82;7.85;;;;;;;-146.25;100.00;52287.09;2087783;28;20172;-70
2023/07/25 02:12:39;;;;;;;17.50;8.90;;;;;;;-146.25;100.00;52238.44;2079901;28;20042;-71
2023/07/25 02:13:41;;;;;;;21.30;8.80;;;;;;;-146.25;100.00;52268.84;2079332;28;20143;-70
2023/07/25 02:14:43;;;;;;;16.05;8.60;;;;;;;-146.25;100.00;52214.09;2079766;28;21092;-70
2023/07/25 02:15:45;;;;;;;14.63;7.53;;;;;;;-146.25;100.00;52254.66;2088940;28;20057;-70
2023/07/25 02:16:46;;;;;;;13.88;7.57;;;;;;;-146.25;100.00;52268.84;2097094;28;20231;-70
2023/07/25 02:17:49;;;;;;;16.80;8.30;;;;;;;-146.25;100.00;52236.41;2097588;28;20049;-70
2023/07/25 02:18:50;;;;;;;10.73;7.47;;;;;;;-146.25;100.00;52246.53;2089527;28;20042;-71
2023/07/25 02:19:53;;;;;;;13.05;7.57;;;;;;;-146.25;100.00;52250.59;2097376;28;20977;-70
2023/07/25 02:20:54;;;;;;;14.02;7.15;;;;;;;-146.25;100.00;52270.88;2097650;28;20179;-70
2023/07/25 02:21:56;;;;;;;13.25;6.97;;;;;;;-146.25;100.00;52266.81;2096804;28;31215;-71
2023/07/25 02:22:59;;;;;;;13.23;7.60;;;;;;;-146.25;100.00;52272.91;2096365;28;30300;-70
2023/07/25 02:24:04;;;;;;;19.95;7.50;;;;;;;-146.25;100.00;52274.94;2105071;28;25093;-70
2023/07/25 02:25:07;;;;;;;17.83;7.57;;;;;;;-146.25;100.00;52258.72;2105610;28;20079;-69
2023/07/25 02:26:11;;;;;;;11.45;6.63;;;;;;;-146.25;100.00;52256.69;2097288;28;32069;-71
2023/07/25 02:27:13;;;;;;;19.50;7.65;;;;;;;-146.25;100.00;52244.50;2096957;28;32117;-71
2023/07/25 02:28:14;;;;;;;16.10;7.15;;;;;;;-146.25;100.00;52258.72;2098205;28;24656;-70
2023/07/25 02:29:17;;;;;;;14.57;6.78;;;;;;;-146.25;100.00;52260.72;2097271;28;21895;-71
2023/07/25 02:30:21;;;;;;;11.80;6.45;;;;;;;-146.25;100.00;52274.94;2098223;28;20076;-68
2023/07/25 02:31:23;;;;;;;12.52;6.38;;;;;;;-146.25;100.00;52250.59;2097461;28;29834;-70
2023/07/25 02:32:25;;;;;;;14.35;6.68;;;;;;;-146.25;100.00;52216.13;2097781;28;25523;-70
2023/07/25 02:33:27;;;;;;;10.80;6.43;;;;;;;-146.25;100.00;52252.63;2097947;28;20037;-70
2023/07/25 02:34:33;;;;;;;11.50;5.90;;;;;;;-146.25;100.00;52246.53;2097378;28;20857;-70
2023/07/25 02:35:35;;;;;;;11.77;6.15;;;;;;;-146.25;100.00;52260.72;2097059;28;34414;-71
2023/07/25 02:36:38;;;;;;;14.48;6.45;;;;;;;-146.25;100.00;52244.50;2098076;28;20033;-70
2023/07/25 02:37:43;;;;;;;13.15;6.13;;;;;;;-146.25;100.00;52262.75;2097562;28;32720;-70
2023/07/25 02:38:50;;;;;;;13.05;6.78;;;;;;;-146.25;100.00;52226.25;2105789;28;20041;-70
2023/07/25 02:39:51;;;;;;;18.98;7.18;;;;;;;-146.25;100.00;52260.72;2096537;28;27165;-70
2023/07/25 02:40:53;;;;;;;14.00;6.85;;;;;;;-146.25;100.00;52270.88;2098008;28;20045;-71
2023/07/25 02:41:55;;;;;;;16.42;7.13;;;;;;;-146.25;100.00;52242.50;2089201;28;28340;-71
2023/07/25 02:42:57;;;;;;;11.95;6.32;;;;;;;-146.25;100.00;52285.06;2096552;28;31396;-71
2023/07/25 02:43:58;;;;;;;21.48;6.50;;;;;;;-146.25;100.00;52272.91;2096340;28;33070;-71
2023/07/25 02:45:01;;;;;;;14.23;6.65;;;;;;;-146.25;100.00;52258.72;2100248;28;31903;-71
2023/07/25 02:46:03;;;;;;;13.52;6.13;;;;;;;-146.25;100.00;52248.56;2089898;28;20894;-70
2023/07/25 02:47:06;;;;;;;12.57;5.85;;;;;;;-146.25;100.00;52315.47;2089811;28;20042;-70
2023/07/25 02:48:09;;;;;;;12.68;6.38;;;;;;;-146.25;100.00;52256.69;2089884;28;21017;-71
2023/07/25 02:49:11;;;;;;;10.95;5.97;;;;;;;-146.25;100.00;52254.66;2088902;28;20111;-71
2023/07/25 02:50:13;;;;;;;15.57;6.85;;;;;;;-146.25;100.00;52236.41;2089183;28;20080;-70
2023/07/25 02:51:15;;;;;;;10.95;6.70;;;;;;;-146.25;100.00;52254.66;2088598;28;28563;-70
2023/07/25 02:52:19;;;;;;;12.32;6.07;;;;;;;-146.25;100.00;52238.44;2088813;28;20045;-70
2023/07/25 02:53:21;;;;;;;13.63;6.10;;;;;;;-146.25;100.00;52281.00;2088351;28;27025;-70
2023/07/25 02:54:23;;;;;;;8.95;5.90;;;;;;;-146.25;100.00;52274.94;2089281;28;23966;-70
2023/07/25 02:55:25;;;;;;;17.27;7.32;;;;;;;-146.25;100.00;52297.22;2089993;28;20898;-70
2023/07/25 02:56:28;;;;;;;15.95;7.88;;;;;;;-146.25;100.00;52240.47;2093457;28;20033;-70
2023/07/25 02:57:30;;;;;;;14.98;7.07;;;;;;;-146.25;100.00;52234.38;2097290;28;20041;-71
2023/07/25 02:58:32;;;;;;;12.63;6.68;;;;;;;-146.25;100.00;52254.66;2088303;28;26619;-70
2023/07/25 02:59:36;;;;;;;11.40;5.90;;;;;;;-146.25;100.00;52238.44;2088781;28;20934;-70
2023/07/25 03:00:42;;;;;;;13.32;6.05;;;;;;;-146.25;100.00;52276.97;2096901;28;29655;-70
2023/07/25 03:01:44;;;;;;;10.70;6.20;;;;;;;-146.25;100.00;52299.25;2097213;28;20188;-70
2023/07/25 03:02:46;;;;;;;10.57;6.40;;;;;;;-146.25;100.00;52254.66;2089192;28;20506;-71
2023/07/25 03:03:48;;;;;;;9.68;5.60;;;;;;;-146.25;100.00;52295.19;2089616;28;20071;-71
2023/07/25 03:04:50;;;;;;;16.20;7.47;;;;;;;-146.25;100.00;52234.38;2097428;28;20084;-70
2023/07/25 03:05:51;;;;;;;13.05;7.40;;;;;;;-146.25;100.00;52270.88;2096568;28;39266;-71
2023/07/25 03:06:56;;;;;;;16.30;7.70;;;;;;;-146.25;100.00;52258.72;2096809;28;30739;-70
2023/07/25 03:07:57;;;;;;;14.80;7.35;;;;;;;-146.25;100.00;52246.53;2096718;28;22879;-70
2023/07/25 03:08:59;;;;;;;16.08;7.90;;;;;;;-146.25;100.00;52248.56;2097086;28;29867;-70
2023/07/25 03:10:01;;;;;;;15.23;8.20;;;;;;;-146.25;100.00;52246.53;2098125;28;20067;-71
2023/07/25 03:11:03;;;;;;;14.23;8.27;;;;;;;-146.25;100.00;52289.13;2105673;28;20075;-71
2023/07/25 03:12:05;;;;;;;11.27;7.90;;;;;;;-146.25;100.00;52254.66;2096851;28;20042;-71
2023/07/25 03:13:06;;;;;;;18.02;8.45;;;;;;;-146.25;100.00;52242.50;2096657;28;27448;-71
2023/07/25 03:14:11;;;;;;;20.10;8.02;;;;;;;-146.25;100.00;52256.69;2105345;28;25801;-71
2023/07/25 03:15:16;;;;;;;14.70;8.07;;;;;;;-146.25;100.00;52270.88;2097104;28;20156;-71
2023/07/25 03:16:17;;;;;;;12.95;7.65;;;;;;;-146.25;100.00;52246.53;2097086;28;23435;-71
2023/07/25 03:17:21;;;;;;;14.75;7.80;;;;;;;-146.25;100.00;52252.63;2097364;28;32648;-71
2023/07/25 03:18:23;;;;;;;16.13;7.50;;;;;;;-146.25;100.00;52252.63;2097027;28;20077;-70
2023/07/25 03:19:25;;;;;;;13.40;8.02;;;;;;;-146.25;100.00;52303.31;2096958;28;33701;-70
2023/07/25 03:20:26;;;;;;;19.27;7.70;;;;;;;-146.25;100.00;52274.94;2098150;28;20803;-71
2023/07/25 03:21:28;;;;;;;15.57;7.15;;;;;;;-146.25;100.00;52297.22;2096644;28;20056;-71
2023/07/25 03:22:33;;;;;;;11.23;7.05;;;;;;;-146.25;100.00;52281.00;2087542;28;22276;-71
2023/07/25 03:23:34;;;;;;;13.60;6.82;;;;;;;-146.25;100.00;52301.28;2096794;28;20067;-71
2023/07/25 03:24:36;;;;;;;12.68;6.97;;;;;;;-146.25;100.00;52281.00;2088666;28;20052;-70
2023/07/25 03:25:38;;;;;;;14.55;7.25;;;;;;;-146.25;100.00;52270.88;2088827;28;24036;-71
2023/07/25 03:26:43;;;;;;;13.73;8.02;;;;;;;-146.25;100.00;52258.72;2089439;28;20112;-71
2023/07/25 03:27:47;;;;;;;11.90;7.93;;;;;;;-146.25;100.00;52264.78;2080539;28;25154;-71
2023/07/25 03:28:48;;;;;;;20.20;8.38;;;;;;;-146.25;100.00;52266.81;2080905;28;26328;-71
2023/07/25 03:29:50;;;;;;;13.13;7.43;;;;;;;-146.25;100.00;52274.94;2088886;28;36621;-71
2023/07/25 03:30:54;;;;;;;16.35;8.35;;;;;;;-146.25;100.00;52303.31;2089756;28;20038;-71
2023/07/25 03:31:57;;;;;;;16.92;8.77;;;;;;;-146.25;100.00;52230.31;2089679;28;20887;-71
2023/07/25 03:33:01;;;;;;;15.02;8.70;;;;;;;-146.25;100.00;52240.47;2087874;28;27917;-71
2023/07/25 03:34:03;;;;;;;17.25;9.20;;;;;;;-146.25;100.00;52230.31;2088877;28;20993;-71
2023/07/25 03:35:06;;;;;;;19.83;9.38;;;;;;;-146.25;100.00;52270.88;2089643;28;20914;-71
2023/07/25 03:36:08;;;;;;;15.07;8.75;;;;;;;-146.25;100.00;52299.25;2089608;28;20072;-71
2023/07/25 03:37:10;;;;;;;19.30;10.38;;;;;;;-146.25;100.00;52236.41;2088999;28;20053;-71
2023/07/25 03:38:11;;;;;;;22.13;9.60;;;;;;;-146.25;100.00;52260.72;2088055;28;31674;-71
2023/07/25 03:39:15;;;;;;;17.67;9.25;;;;;;;-146.25;100.00;52297.22;2088247;28;23676;-72
2023/07/25 03:40:17;;;;;;;18.27;8.38;;;;;;;-146.25;100.00;52303.31;2092490;28;20065;-71
2023/07/25 03:41:19;;;;;;;15.07;8.25;;;;;;;-146.25;100.00;52266.81;2096495;28;27548;-71
2023/07/25 03:42:21;;;;;;;16.08;8.93;;;;;;;-146.25;100.00;52283.03;2097507;28;24880;-71
2023/07/25 03:43:22;;;;;;;17.95;9.77;;;;;;;-146.25;100.00;52270.88;2097827;28;20045;-71
2023/07/25 03:44:24;;;;;;;15.65;9.30;;;;;;;-146.25;100.00;52297.22;2097261;28;26734;-71
2023/07/25 03:45:26;;;;;;;14.90;9.45;;;;;;;-146.25;100.00;52272.91;2097124;28;20033;-71
2023/07/25 03:46:28;;;;;;;15.80;8.73;;;;;;;-146.25;100.00;52287.09;2097237;28;20079;-71
2023/07/25 03:47:29;;;;;;;13.98;8.75;;;;;;;-146.25;100.00;52305.34;2097251;28;31165;-71
2023/07/25 03:48:32;;;;;;;12.15;8.73;;;;;;;-146.25;100.00;52295.19;2096636;28;21273;-71
2023/07/25 03:49:34;;;;;;;18.30;8.70;;;;;;;-146.25;100.00;52256.69;2096670;28;29682;-71
2023/07/25 03:50:35;;;;;;;17.25;7.75;;;;;;;-146.25;100.00;52240.47;2105343;28;20037;-71
2023/07/25 03:51:38;;;;;;;16.27;7.85;;;;;;;-146.25;100.00;52274.94;2105232;28;20041;-71
2023/07/25 03:52:40;;;;;;;16.75;8.88;;;;;;;-146.25;100.00;52283.03;2096956;28;20155;-71
2023/07/25 03:53:41;;;;;;;16.60;8.70;;;;;;;-146.25;100.00;52260.72;2088033;28;28026;-72
2023/07/25 03:54:43;;;;;;;16.40;8.90;;;;;;;-146.25;100.00;52272.91;2088780;28;20045;-71
2023/07/25 03:55:45;;;;;;;13.57;8.65;;;;;;;-146.25;100.00;52301.28;2089301;28;20071;-71
2023/07/25 03:56:47;;;;;;;16.38;8.27;;;;;;;-146.25;100.00;52272.91;2088853;28;20041;-71
2023/07/25 03:57:51;;;;;;;17.92;8.40;;;;;;;-146.25;100.00;52287.09;2089241;28;20034;-71
2023/07/25 03:58:52;;;;;;;16.48;8.10;;;;;;;-146.25;100.00;52260.72;2088137;28;20159;-72
2023/07/25 03:59:54;;;;;;;13.93;8.48;;;;;;;-146.25;100.00;52230.31;2088032;28;30866;-71
2023/07/25 04:00:56;;;;;;;14.07;8.45;;;;;;;-146.25;100.00;52287.09;2089126;28;20044;-72
2023/07/25 04:01:58;;;;;;;15.13;7.57;;;;;;;-146.25;100.00;52258.72;2089112;28;20119;-72
2023/07/25 04:03:00;;;;;;;11.80;7.63;;;;;;;-146.25;100.00;52289.13;2088189;28;20052;-71
2023/07/25 04:04:15;;;;;;;12.95;7.03;;;;;;;-146.25;100.00;52313.44;2081741;28;26936;-72
2023/07/25 04:05:17;;;;;;;14.18;7.78;;;;;;;-146.25;100.00;52252.63;2088301;28;20053;-71
2023/07/25 04:06:22;;;;;;;17.50;8.18;;;;;;;-146.25;100.00;52274.94;2088409;28;20038;-72
2023/07/25 04:07:23;;;;;;;14.70;6.97;;;;;;;-146.25;100.00;52266.81;2088164;28;24823;-72
2023/07/25 04:08:27;;;;;;;16.58;7.35;;;;;;;-146.25;100.00;52295.19;2088842;28;25650;-71
2023/07/25 04:09:29;;;;;;;16.45;7.70;;;;;;;-146.25;100.00;52264.78;2088828;28;20085;-71
2023/07/25 04:10:31;;;;;;;12.32;6.85;;;;;;;-146.25;100.00;52264.78;2089095;28;23795;-72
2023/07/25 04:11:33;;;;;;;12.07;7.32;;;;;;;-146.25;100.00;52315.47;2088736;28;20030;-72
2023/07/25 04:12:35;;;;;;;12.25;6.90;;;;;;;-146.25;100.00;52285.06;2087917;28;20795;-72
2023/07/25 04:13:36;;;;;;;11.40;6.88;;;;;;;-146.25;100.00;52319.53;2087967;28;25982;-72
2023/07/25 04:14:40;;;;;;;10.60;6.75;;;;;;;-146.25;100.00;52276.97;2088690;28;24444;-72
2023/07/25 04:15:42;;;;;;;10.07;6.05;;;;;;;-146.25;100.00;52287.09;2087733;28;35802;-71
2023/07/25 04:16:44;;;;;;;11.73;6.13;;;;;;;-146.25;100.00;52301.28;2088521;28;20069;-71
2023/07/25 04:17:46;;;;;;;9.23;5.82;;;;;;;-146.25;100.00;52268.84;2088730;28;31139;-72
2023/07/25 04:18:51;;;;;;;9.07;5.45;;;;;;;-146.25;100.00;52295.19;2088527;28;20976;-71
2023/07/25 04:19:52;;;;;;;7.90;4.22;;;;;;;-146.25;100.00;52287.09;2087952;28;34407;-72
2023/07/25 04:20:54;;;;;;;10.63;4.15;;;;;;;-146.25;100.00;52303.31;2087609;28;32730;-72
2023/07/25 04:21:56;;;;;;;8.70;4.00;;;;;;;-146.25;100.00;52331.69;2079851;28;26177;-72
2023/07/25 04:22:58;;;;;;;7.72;3.90;;;;;;;-146.25;100.00;52258.72;2080210;28;25124;-72
2023/07/25 04:24:00;;;;;;;10.02;3.67;;;;;;;-146.25;100.00;52299.25;2080598;28;20038;-72
2023/07/25 04:25:03;;;;;;;7.03;3.30;;;;;;;-146.25;100.00;52289.13;2088696;28;20084;-72
2023/07/25 04:26:04;;;;;;;6.43;2.67;;;;;;;-146.25;100.00;52291.16;2088288;28;20917;-71
2023/07/25 04:27:09;;;;;;;6.75;2.70;;;;;;;-146.25;100.00;52291.16;2089864;28;20037;-72
2023/07/25 04:28:12;;;;;;;7.68;2.70;;;;;;;-146.25;100.00;52305.34;2088680;28;20042;-72
2023/07/25 04:29:14;;;;;;;6.93;2.47;;;;;;;-146.25;100.00;52315.47;2088557;28;20131;-71
2023/07/25 04:30:16;;;;;;;8.80;3.00;;;;;;;-146.25;100.00;52299.25;2089165;28;20045;-71
2023/07/25 04:31:20;;;;;;;9.55;2.40;;;;;;;-146.25;100.00;52309.41;2088278;28;33567;-72
2023/07/25 04:32:22;;;;;;;7.57;2.40;;;;;;;-146.25;99.42;52354.00;2088482;28;32319;-71
2023/07/25 04:33:23;;;;;;;8.48;2.33;;;;;;;-146.25;98.32;52309.41;2088644;28;35792;-71
2023/07/25 04:34:25;;;;;;;8.95;2.30;;;;;;;-146.25;93.82;52313.44;2089069;28;20041;-71
2023/07/25 04:35:27;;;;;;;6.38;1.88;;;;;;;-146.25;92.74;52327.66;2088041;28;20082;-71
2023/07/25 04:36:29;;;;;;;9.13;2.20;;;;;;;-146.25;88.27;52299.25;2088393;28;20042;-72
2023/07/25 04:37:31;;;;;;;6.45;1.70;;;;;;;-146.25;87.77;52351.97;2088077;28;25796;-71
2023/07/25 04:38:33;;;;;;;6.20;1.80;;;;;;;-146.25;84.40;52339.81;2087659;28;22907;-71
2023/07/25 04:39:34;;;;;;;8.07;1.88;;;;;;;-146.25;85.48;52289.13;2087984;28;28454;-71
2023/07/25 04:40:36;;;;;;;9.05;2.17;;;;;;;-146.25;82.11;52295.19;2088466;28;20140;-71
2023/07/25 04:41:38;;;;;;;5.32;1.42;;;;;;;-146.25;84.53;52299.25;2082533;28;25215;-71